Time;durP1;ratioP1;P1;durP2;ratioP2;P2;SDS_P1;SDS_P2;PMS_P1;PMS_P2;Temp;Humidity;BMP_temperature;BMP_pressure;BME280_temperature;BME280_humidity;BME280_pressure;Samples;Min_cycle;Max_cycle;Signal;HPM_P1;HPM_P2
2021/11/09 00:00:21;;;;;;;21.17;10.18;;;5.70;80.60;;;;;;5013470;28;20140;-89
2021/11/09 00:02:50;;;;;;;25.10;9.15;;;5.70;80.60;;;;;;5018930;28;20057;-90
2021/11/09 00:05:19;;;;;;;19.38;10.23;;;5.70;80.70;;;;;;5024270;28;20569;-90
2021/11/09 00:07:51;;;;;;;17.40;9.25;;;5.70;80.70;;;;;;5021038;28;20132;-89
2021/11/09 00:10:20;;;;;;;19.02;9.65;;;5.70;80.70;;;;;;5019597;28;20049;-90
2021/11/09 00:12:50;;;;;;;24.90;9.88;;;5.70;80.70;;;;;;4997683;28;20132;-90
2021/11/09 00:15:20;;;;;;;26.35;9.82;;;5.70;80.70;;;;;;5013265;28;20085;-90
2021/11/09 00:17:50;;;;;;;19.85;9.25;;;5.70;80.70;;;;;;5012865;28;20049;-92
2021/11/09 00:20:20;;;;;;;20.10;9.50;;;5.70;80.70;;;;;;5028464;28;20136;-90
2021/11/09 00:22:48;;;;;;;23.05;9.57;;;5.70;80.80;;;;;;5031641;28;20079;-91
2021/11/09 00:25:16;;;;;;;18.83;8.43;;;5.70;80.80;;;;;;5028890;28;20128;-90
2021/11/09 00:27:43;;;;;;;17.60;9.05;;;5.70;80.80;;;;;;5015793;28;20056;-90
2021/11/09 00:30:13;;;;;;;19.35;9.48;;;5.70;80.80;;;;;;5032621;28;20141;-90
2021/11/09 00:32:43;;;;;;;23.95;9.02;;;5.70;80.90;;;;;;5011718;28;20053;-89
2021/11/09 00:35:17;;;;;;;23.85;8.88;;;5.70;80.90;;;;;;5011731;28;20057;-90
2021/11/09 00:37:46;;;;;;;19.52;8.63;;;5.70;80.90;;;;;;5014345;28;20554;-89
2021/11/09 00:40:14;;;;;;;18.80;8.75;;;5.70;80.90;;;;;;5014833;28;20061;-89
2021/11/09 00:42:41;;;;;;;16.63;8.52;;;5.70;81.00;;;;;;5015748;28;20399;-89
2021/11/09 00:45:10;;;;;;;17.27;9.13;;;5.70;80.90;;;;;;5017835;28;20058;-90
2021/11/09 00:47:40;;;;;;;19.75;8.25;;;5.70;80.90;;;;;;5017235;28;20082;-90
2021/11/09 00:50:09;;;;;;;22.92;9.10;;;5.70;81.00;;;;;;5011837;28;20655;-90
2021/11/09 00:52:37;;;;;;;22.80;9.30;;;5.70;81.00;;;;;;5021012;28;20128;-89
2021/11/09 00:55:06;;;;;;;16.50;9.38;;;5.70;81.00;;;;;;5031579;28;20060;-90
2021/11/09 00:57:33;;;;;;;19.38;8.85;;;5.70;81.00;;;;;;5010858;28;20160;-90
2021/11/09 01:00:00;;;;;;;20.30;9.23;;;5.70;81.00;;;;;;5014144;28;20053;-90
2021/11/09 01:02:27;;;;;;;18.73;9.38;;;5.70;81.00;;;;;;5013467;28;20475;-90
2021/11/09 01:04:55;;;;;;;20.40;8.60;;;5.70;81.00;;;;;;5012956;28;20053;-91
2021/11/09 01:07:22;;;;;;;19.80;8.55;;;5.70;81.00;;;;;;5014379;28;20057;-90
2021/11/09 01:09:49;;;;;;;20.02;8.77;;;5.60;81.00;;;;;;5013798;28;20429;-89
2021/11/09 01:12:16;;;;;;;18.33;7.82;;;5.70;81.00;;;;;;5012883;28;20056;-89
2021/11/09 01:14:43;;;;;;;25.90;8.50;;;5.60;81.00;;;;;;4991758;28;20498;-89
2021/11/09 01:17:11;;;;;;;15.40;7.95;;;5.60;81.00;;;;;;5004334;28;20500;-89
2021/11/09 01:19:38;;;;;;;20.42;8.52;;;5.60;81.00;;;;;;5010848;28;20116;-89
2021/11/09 01:22:06;;;;;;;15.88;8.38;;;5.60;81.00;;;;;;5014417;28;20053;-89
2021/11/09 01:24:34;;;;;;;17.42;8.57;;;5.60;81.10;;;;;;5009574;28;20054;-89
2021/11/09 01:27:01;;;;;;;17.48;8.52;;;5.60;81.10;;;;;;5009662;28;20046;-89
2021/11/09 01:29:29;;;;;;;18.50;8.27;;;5.60;81.10;;;;;;5012004;28;20060;-90
2021/11/09 01:31:56;;;;;;;22.40;9.15;;;5.60;81.20;;;;;;5023064;28;20133;-88
2021/11/09 01:34:23;;;;;;;22.13;8.60;;;5.60;81.20;;;;;;5025043;28;20521;-88
2021/11/09 01:36:51;;;;;;;21.73;8.63;;;5.60;81.20;;;;;;5012234;28;20053;-90
2021/11/09 01:39:18;;;;;;;20.00;8.80;;;5.60;81.20;;;;;;5015725;28;20129;-91
2021/11/09 01:41:45;;;;;;;18.67;8.07;;;5.60;81.20;;;;;;5018718;28;20054;-90
2021/11/09 01:44:13;;;;;;;16.73;8.60;;;5.70;81.30;;;;;;5016012;28;20133;-89
2021/11/09 01:46:40;;;;;;;21.45;8.55;;;5.60;81.30;;;;;;5018336;28;20134;-89
2021/11/09 01:49:08;;;;;;;19.63;8.73;;;5.60;81.30;;;;;;5021717;28;20052;-89
2021/11/09 01:51:35;;;;;;;20.70;8.88;;;5.60;81.30;;;;;;5014043;28;20073;-91
2021/11/09 01:54:07;;;;;;;19.63;8.25;;;5.60;81.30;;;;;;5035576;28;20067;-90
2021/11/09 01:56:35;;;;;;;14.88;8.02;;;5.60;81.30;;;;;;5016650;28;20525;-89
2021/11/09 01:59:04;;;;;;;21.70;9.07;;;5.60;81.30;;;;;;5021284;28;20053;-89
2021/11/09 02:01:31;;;;;;;19.60;8.15;;;5.60;81.30;;;;;;5017476;28;20057;-89
2021/11/09 02:04:01;;;;;;;21.33;8.35;;;5.60;81.30;;;;;;5016283;28;20394;-89
2021/11/09 02:06:30;;;;;;;16.73;8.10;;;5.60;81.40;;;;;;5015345;28;20125;-89
2021/11/09 02:09:18;;;;;;;22.35;8.52;;;5.60;81.40;;;;;;5008027;28;20058;-89
2021/11/09 02:11:47;;;;;;;15.52;8.20;;;5.60;81.40;;;;;;4994928;28;20462;-90
2021/11/09 02:14:15;;;;;;;15.95;7.80;;;5.60;81.40;;;;;;5014939;28;20136;-90
2021/11/09 02:16:43;;;;;;;21.25;8.07;;;5.50;81.40;;;;;;5019816;28;20050;-90
2021/11/09 02:19:10;;;;;;;22.42;8.40;;;5.50;81.40;;;;;;5014344;28;20141;-89
2021/11/09 02:21:37;;;;;;;19.67;8.40;;;5.50;81.40;;;;;;5015462;28;20056;-90
2021/11/09 02:24:05;;;;;;;19.35;7.93;;;5.50;81.40;;;;;;5020479;28;20088;-89
2021/11/09 02:26:32;;;;;;;18.55;7.80;;;5.50;81.40;;;;;;5015380;28;20069;-92
2021/11/09 02:29:00;;;;;;;17.27;8.10;;;5.50;81.40;;;;;;5014497;28;20046;-91
2021/11/09 02:31:30;;;;;;;15.32;7.07;;;5.50;81.40;;;;;;5022586;28;20605;-90
2021/11/09 02:33:58;;;;;;;13.02;7.20;;;5.50;81.40;;;;;;5031355;28;20103;-90
2021/11/09 02:36:26;;;;;;;14.57;7.07;;;5.50;81.40;;;;;;5014281;28;20128;-91
2021/11/09 02:38:53;;;;;;;16.90;8.02;;;5.50;81.40;;;;;;5013940;28;20061;-90
2021/11/09 02:41:20;;;;;;;19.88;8.30;;;5.50;81.40;;;;;;5014858;28;20058;-90
2021/11/09 02:43:47;;;;;;;18.00;7.80;;;5.50;81.50;;;;;;5014998;28;20049;-89
2021/11/09 02:49:08;;;;;;;19.30;7.45;;;5.50;81.50;;;;;;5002588;28;20056;-89
2021/11/09 02:51:44;;;;;;;17.02;7.03;;;5.50;81.50;;;;;;5015732;28;20124;-89
2021/11/09 03:04:10;;;;;;;20.90;8.38;;;5.50;81.50;;;;;;5015280;28;20092;-89
2021/11/09 03:06:46;;;;;;;19.88;7.50;;;5.50;81.50;;;;;;5015831;28;20065;-89
2021/11/09 03:09:15;;;;;;;16.38;8.05;;;5.50;81.60;;;;;;5010257;28;20116;-90
2021/11/09 03:11:51;;;;;;;17.77;8.07;;;5.50;81.60;;;;;;5013922;28;20049;-90
2021/11/09 03:14:20;;;;;;;17.15;7.85;;;5.50;81.60;;;;;;5013551;28;20495;-90
2021/11/09 03:16:47;;;;;;;14.18;7.88;;;5.40;81.60;;;;;;5016056;28;20053;-90
2021/11/09 03:19:32;;;;;;;16.48;7.78;;;5.40;81.60;;;;;;5014339;28;20060;-90
2021/11/09 03:44:24;;;;;;;23.58;9.77;;;5.40;81.80;;;;;;5005605;28;20062;-90
2021/11/09 03:47:00;;;;;;;19.60;8.55;;;5.40;81.90;;;;;;5012839;28;20057;-89
2021/11/09 03:49:29;;;;;;;17.67;7.95;;;5.40;82.00;;;;;;5019399;28;20056;-91
2021/11/09 03:51:58;;;;;;;19.70;8.27;;;5.50;82.10;;;;;;5032729;28;20049;-89
2021/11/09 03:54:30;;;;;;;21.50;9.63;;;5.50;82.20;;;;;;5032785;28;20049;-90
2021/11/09 04:02:54;;;;;;;26.02;9.52;;;5.50;82.40;;;;;;4971121;28;20498;-90
2021/11/09 04:05:26;;;;;;;22.80;9.05;;;5.60;82.50;;;;;;4967464;28;20448;-91
2021/11/09 04:10:34;;;;;;;24.67;9.88;;;5.60;82.70;;;;;;4980460;28;20058;-91
2021/11/09 04:18:22;;;;;;;22.98;10.43;;;5.70;82.80;;;;;;4974059;28;20050;-91
2021/11/09 04:21:14;;;;;;;26.05;10.05;;;5.80;82.90;;;;;;4969189;28;20055;-90
2021/11/09 04:24:18;;;;;;;23.33;9.48;;;5.90;83.00;;;;;;4973038;28;20058;-90
2021/11/09 04:27:12;;;;;;;25.98;9.95;;;5.90;83.00;;;;;;4972460;28;20054;-90
2021/11/09 05:10:03;;;;;;;31.30;10.95;;;6.30;83.60;;;;;;4940896;28;20065;-90
2021/11/09 05:12:31;;;;;;;29.52;11.43;;;6.30;83.60;;;;;;4954894;28;20070;-90
2021/11/09 05:14:58;;;;;;;34.17;11.07;;;6.30;83.60;;;;;;4958647;28;20570;-90
2021/11/09 05:17:26;;;;;;;28.67;11.60;;;6.40;83.60;;;;;;4957275;28;20051;-90
2021/11/09 05:19:53;;;;;;;24.98;11.50;;;6.40;83.70;;;;;;4979063;28;20051;-89
2021/11/09 05:22:20;;;;;;;35.22;12.55;;;6.40;83.70;;;;;;5005247;28;20054;-91
2021/11/09 05:24:46;;;;;;;32.97;12.57;;;6.40;83.70;;;;;;5017627;28;20057;-91
2021/11/09 05:27:16;;;;;;;28.67;11.90;;;6.40;83.70;;;;;;4995603;28;20057;-88
2021/11/09 05:29:45;;;;;;;23.83;11.65;;;6.40;83.80;;;;;;5012852;28;20057;-90
2021/11/09 05:32:12;;;;;;;26.33;11.65;;;6.40;83.70;;;;;;5015319;28;20056;-91
2021/11/09 05:34:39;;;;;;;26.45;12.88;;;6.40;83.80;;;;;;5015581;28;20091;-90
2021/11/09 05:37:09;;;;;;;31.30;12.02;;;6.40;83.80;;;;;;5017811;28;20491;-90
2021/11/09 05:39:45;;;;;;;26.85;12.50;;;6.50;83.80;;;;;;5015787;28;20061;-89
2021/11/09 05:42:13;;;;;;;18.67;11.73;;;6.40;83.80;;;;;;5014936;28;20058;-90
2021/11/09 05:44:41;;;;;;;22.70;12.35;;;6.50;83.80;;;;;;5014208;28;20108;-90
2021/11/09 05:47:08;;;;;;;22.42;11.48;;;6.50;83.80;;;;;;5015469;28;20058;-90
2021/11/09 05:49:35;;;;;;;25.95;11.52;;;6.50;83.80;;;;;;5023950;28;20053;-90
2021/11/09 05:52:03;;;;;;;30.67;12.65;;;6.50;83.80;;;;;;5035249;28;20129;-89
2021/11/09 05:54:30;;;;;;;34.33;12.95;;;6.50;83.80;;;;;;5018230;28;20054;-89
2021/11/09 05:56:57;;;;;;;26.25;13.13;;;6.50;83.90;;;;;;5014498;28;20046;-90
2021/11/09 05:59:24;;;;;;;25.45;11.98;;;6.50;83.90;;;;;;5021556;28;20050;-89
2021/11/09 06:01:51;;;;;;;28.70;13.00;;;6.60;83.90;;;;;;5022417;28;20057;-89
2021/11/09 06:04:18;;;;;;;22.60;11.63;;;6.60;83.90;;;;;;5016196;28;20096;-90
2021/11/09 06:06:45;;;;;;;24.63;12.73;;;6.60;83.90;;;;;;5000064;28;20053;-89
2021/11/09 06:09:12;;;;;;;25.30;12.85;;;6.60;83.90;;;;;;5015989;28;20053;-90
2021/11/09 06:11:39;;;;;;;27.17;13.45;;;6.60;83.90;;;;;;5034099;28;20505;-89
2021/11/09 06:14:07;;;;;;;22.35;12.20;;;6.60;83.90;;;;;;5035329;28;20057;-89
2021/11/09 06:16:35;;;;;;;31.20;13.57;;;6.60;83.90;;;;;;5025279;28;20049;-91
2021/11/09 06:19:04;;;;;;;22.15;13.27;;;6.60;83.90;;;;;;5015829;28;20057;-89
2021/11/09 06:21:32;;;;;;;29.67;13.38;;;6.60;83.90;;;;;;5014645;28;20050;-90
2021/11/09 06:24:00;;;;;;;33.40;14.10;;;6.60;83.90;;;;;;5015337;28;20659;-90
2021/11/09 06:26:27;;;;;;;24.73;12.93;;;6.60;83.90;;;;;;5030457;28;20049;-90
2021/11/09 06:28:59;;;;;;;27.35;12.82;;;6.60;83.90;;;;;;5033406;28;20061;-90
2021/11/09 06:31:31;;;;;;;26.70;12.88;;;6.60;83.90;;;;;;5025585;28;20065;-90
2021/11/09 06:33:58;;;;;;;28.98;13.77;;;6.60;83.90;;;;;;5015025;28;20100;-89
2021/11/09 06:36:25;;;;;;;26.35;12.73;;;6.70;83.90;;;;;;5015144;28;20058;-90
2021/11/09 06:38:52;;;;;;;29.08;13.23;;;6.70;83.90;;;;;;5014512;28;20069;-90
2021/11/09 06:41:21;;;;;;;25.90;13.20;;;6.70;84.00;;;;;;5017363;28;20044;-89
2021/11/09 06:43:48;;;;;;;27.65;12.95;;;6.70;84.00;;;;;;5010248;28;20058;-90
2021/11/09 06:46:16;;;;;;;22.77;12.48;;;6.60;84.00;;;;;;5016120;28;20057;-89
2021/11/09 06:48:45;;;;;;;31.08;12.82;;;6.70;84.00;;;;;;5015016;28;20132;-90
2021/11/09 06:51:12;;;;;;;20.38;12.35;;;6.70;84.00;;;;;;5014521;28;20056;-90
2021/11/09 06:53:40;;;;;;;24.58;13.18;;;6.70;84.00;;;;;;5013789;28;20536;-89
2021/11/09 06:56:07;;;;;;;31.15;13.55;;;6.70;84.00;;;;;;5011940;28;20042;-90
2021/11/09 06:58:35;;;;;;;24.85;12.90;;;6.70;84.00;;;;;;5013485;28;20069;-89
2021/11/09 07:01:05;;;;;;;27.30;12.55;;;6.70;84.00;;;;;;4999064;28;20046;-88
2021/11/09 07:03:33;;;;;;;25.65;12.32;;;6.70;84.00;;;;;;4998871;28;20460;-89
2021/11/09 07:06:01;;;;;;;33.60;14.15;;;6.70;84.00;;;;;;5013405;28;20054;-90
2021/11/09 07:08:29;;;;;;;27.23;12.77;;;6.70;83.90;;;;;;5014020;28;20061;-89
2021/11/09 07:10:57;;;;;;;29.33;14.05;;;6.70;84.00;;;;;;5001630;28;20062;-92
2021/11/09 07:13:24;;;;;;;24.38;14.15;;;6.70;83.90;;;;;;4996100;28;20057;-92
2021/11/09 07:15:51;;;;;;;25.13;14.43;;;6.60;84.00;;;;;;5010225;28;20065;-90
2021/11/09 07:18:19;;;;;;;29.73;14.30;;;6.70;84.00;;;;;;5013855;28;20482;-91
2021/11/09 07:20:46;;;;;;;29.85;14.90;;;6.70;84.00;;;;;;4993868;28;20067;-89
2021/11/09 07:23:13;;;;;;;34.92;15.88;;;6.70;84.00;;;;;;5001585;28;20061;-90
2021/11/09 07:25:40;;;;;;;30.92;15.57;;;6.70;84.00;;;;;;5006084;28;20054;-90
2021/11/09 07:28:07;;;;;;;28.08;16.33;;;6.70;84.00;;;;;;4997251;28;20046;-90
2021/11/09 07:30:43;;;;;;;33.55;15.43;;;6.70;84.00;;;;;;5009863;28;20425;-90
2021/11/09 07:33:11;;;;;;;27.67;14.80;;;6.70;84.00;;;;;;5013590;28;20049;-90
2021/11/09 07:35:38;;;;;;;27.60;14.45;;;6.70;84.00;;;;;;5016569;28;20065;-90
2021/11/09 07:38:07;;;;;;;26.98;14.02;;;6.70;84.00;;;;;;4997973;28;20051;-91
2021/11/09 07:40:35;;;;;;;33.08;14.90;;;6.70;84.00;;;;;;5002216;28;20506;-90
2021/11/09 07:43:02;;;;;;;29.80;15.07;;;6.70;84.00;;;;;;5013809;28;20503;-90
2021/11/09 07:45:29;;;;;;;31.00;15.88;;;6.70;84.10;;;;;;5009852;28;20100;-89
2021/11/09 07:47:58;;;;;;;30.92;15.13;;;6.70;84.10;;;;;;5006862;28;20541;-89
2021/11/09 07:50:25;;;;;;;30.25;14.40;;;6.70;84.10;;;;;;5014265;28;20061;-90
2021/11/09 07:52:57;;;;;;;27.10;14.55;;;6.70;84.10;;;;;;5006703;28;20057;-90
2021/11/09 07:55:28;;;;;;;25.25;14.68;;;6.70;84.10;;;;;;4999204;28;20061;-89
2021/11/09 07:58:07;;;;;;;32.15;16.90;;;6.70;84.10;;;;;;5009910;28;20050;-91
2021/11/09 08:00:36;;;;;;;38.05;19.25;;;6.70;84.10;;;;;;4996497;28;20054;-90
2021/11/09 08:06:15;;;;;;;31.23;17.73;;;6.70;84.10;;;;;;4934202;29;20061;-90
2021/11/09 08:11:28;;;;;;;36.88;19.60;;;6.70;84.10;;;;;;4934408;29;20115;-89
2021/11/09 08:13:55;;;;;;;37.60;19.05;;;6.70;84.10;;;;;;4934201;29;20044;-90
2021/11/09 08:16:22;;;;;;;36.90;19.60;;;6.70;84.10;;;;;;4935531;29;20048;-92
2021/11/09 08:18:49;;;;;;;34.90;20.83;;;6.70;84.10;;;;;;4934388;29;20058;-91
2021/11/09 08:21:16;;;;;;;37.15;20.33;;;6.70;84.10;;;;;;4934397;29;20058;-90
2021/11/09 08:23:48;;;;;;;33.97;18.55;;;6.70;84.10;;;;;;4915900;29;20064;-89
2021/11/09 08:26:18;;;;;;;32.50;19.15;;;6.70;84.20;;;;;;4930040;29;20152;-90
2021/11/09 08:28:45;;;;;;;36.83;18.52;;;6.70;84.20;;;;;;4906952;29;20059;-90
2021/11/09 08:31:15;;;;;;;33.75;18.13;;;6.80;84.20;;;;;;4922074;29;20614;-90
2021/11/09 08:33:43;;;;;;;30.25;19.02;;;6.70;84.20;;;;;;4934130;29;20123;-90
2021/11/09 08:36:14;;;;;;;33.08;17.75;;;6.70;84.20;;;;;;4933988;29;20055;-90
2021/11/09 08:38:42;;;;;;;26.73;16.77;;;6.80;84.20;;;;;;4933463;29;20051;-91
2021/11/09 08:41:11;;;;;;;31.27;17.88;;;6.80;84.30;;;;;;4949497;28;20050;-90
2021/11/09 08:43:41;;;;;;;29.20;16.17;;;6.80;84.30;;;;;;4992782;28;20065;-90
2021/11/09 08:46:19;;;;;;;32.58;17.27;;;6.80;84.30;;;;;;4992658;28;20046;-91
2021/11/09 08:48:48;;;;;;;35.67;17.83;;;6.90;84.40;;;;;;4997018;28;20046;-90
2021/11/09 08:51:16;;;;;;;29.42;16.25;;;6.90;84.40;;;;;;5013630;28;20057;-91
2021/11/09 08:53:51;;;;;;;35.83;17.83;;;6.90;84.40;;;;;;4993785;28;20061;-91
2021/11/09 09:04:20;;;;;;;33.03;16.27;;;7.00;84.50;;;;;;5010967;28;20042;-89
2021/11/09 09:06:56;;;;;;;34.83;16.80;;;7.00;84.50;;;;;;5012478;28;20050;-90
2021/11/09 09:09:23;;;;;;;31.65;16.42;;;7.10;84.50;;;;;;4996570;28;20061;-90
2021/11/09 09:11:52;;;;;;;32.42;16.13;;;7.10;84.60;;;;;;4993316;28;20105;-90
2021/11/09 09:14:21;;;;;;;39.55;15.65;;;7.10;84.50;;;;;;4995459;28;20133;-90
2021/11/09 09:16:50;;;;;;;27.92;15.13;;;7.20;84.60;;;;;;4996277;28;20045;-89
2021/11/09 09:19:20;;;;;;;28.27;15.70;;;7.20;84.60;;;;;;5004220;28;20051;-89
2021/11/09 09:21:50;;;;;;;27.13;14.88;;;7.30;84.60;;;;;;4996682;28;20053;-90
2021/11/09 09:52:31;;;;;;;36.60;15.68;;;7.90;85.00;;;;;;4838697;29;20054;-89
2021/11/09 09:57:28;;;;;;;39.00;15.68;;;8.10;85.00;;;;;;4837861;29;20053;-89
2021/11/09 09:59:57;;;;;;;34.42;15.20;;;8.20;85.00;;;;;;4824661;29;20065;-89
2021/11/09 10:02:30;;;;;;;35.42;15.45;;;8.30;85.00;;;;;;4837872;29;20049;-90
2021/11/09 10:05:06;;;;;;;29.52;14.45;;;8.50;84.90;;;;;;4842894;29;20772;-92
2021/11/09 10:07:37;;;;;;;37.03;14.18;;;8.60;84.90;;;;;;4845194;29;20060;-91
2021/11/09 10:10:11;;;;;;;30.10;13.50;;;8.70;84.70;;;;;;4930043;29;20047;-90
2021/11/09 10:12:41;;;;;;;32.33;13.13;;;8.90;84.60;;;;;;4917031;29;20063;-92
2021/11/09 10:15:15;;;;;;;35.40;14.30;;;9.10;84.40;;;;;;4916966;29;20382;-91
2021/11/09 10:17:56;;;;;;;27.88;12.82;;;9.20;84.10;;;;;;4936449;29;20055;-93
2021/11/09 10:20:26;;;;;;;42.75;12.75;;;9.40;83.80;;;;;;4920905;29;20055;-92
2021/11/09 10:23:00;;;;;;;31.92;12.07;;;9.50;83.50;;;;;;4957748;28;20052;-92
2021/11/09 10:25:28;;;;;;;;;;;9.70;83.20;;;;;;5007041;28;20109;-90
2021/11/09 10:28:06;;;;;;;37.75;12.35;;;9.90;82.90;;;;;;4996385;28;19926;-93
2021/11/09 10:30:39;;;;;;;27.67;12.07;;;9.90;82.60;;;;;;4998221;28;20058;-92
2021/11/09 10:33:06;;;;;;;31.70;12.00;;;10.00;82.20;;;;;;5015271;28;20050;-90
2021/11/09 10:35:33;;;;;;;31.33;11.65;;;10.20;82.00;;;;;;4997235;28;20051;-90
2021/11/09 10:38:04;;;;;;;33.45;11.63;;;10.20;81.80;;;;;;5010105;28;20049;-91
2021/11/09 10:40:50;;;;;;;27.50;10.15;;;10.30;81.50;;;;;;5012623;28;20054;-90
2021/11/09 10:43:22;;;;;;;30.00;11.25;;;10.40;81.30;;;;;;5003858;28;20054;-90
2021/11/09 10:45:49;;;;;;;40.67;11.15;;;10.40;81.10;;;;;;5010346;28;20776;-89
2021/11/09 10:48:19;;;;;;;25.27;9.55;;;10.50;80.90;;;;;;5010608;28;20054;-90
2021/11/09 10:50:52;;;;;;;33.17;10.38;;;10.60;80.70;;;;;;4995909;28;20042;-89
2021/11/09 11:04:39;;;;;;;24.80;10.85;;;10.70;79.60;;;;;;5006219;28;20069;-89
2021/11/09 11:07:13;;;;;;;25.63;11.38;;;10.80;79.40;;;;;;4996403;28;20057;-91
2021/11/09 11:09:42;;;;;;;27.73;11.10;;;10.80;79.20;;;;;;4996355;28;20049;-89
2021/11/09 11:12:11;;;;;;;29.63;11.68;;;10.80;79.10;;;;;;4999209;28;20054;-91
2021/11/09 11:14:43;;;;;;;39.83;10.50;;;10.80;79.00;;;;;;5009867;28;20050;-91
2021/11/09 11:17:17;;;;;;;26.58;10.85;;;10.80;79.00;;;;;;4998948;28;20051;-88
2021/11/09 11:19:49;;;;;;;;;;;10.80;78.90;;;;;;5004020;28;20049;-89
2021/11/09 11:22:21;;;;;;;28.88;11.40;;;10.80;78.90;;;;;;5009207;28;19922;-89
2021/11/09 11:24:50;;;;;;;27.95;10.35;;;10.80;78.90;;;;;;4998707;28;20056;-89
2021/11/09 11:27:18;;;;;;;25.90;11.10;;;10.80;78.90;;;;;;4998465;28;20499;-88
2021/11/09 11:29:45;;;;;;;26.17;11.35;;;10.80;78.90;;;;;;5007199;28;20054;-89
2021/11/09 11:32:20;;;;;;;22.80;10.13;;;10.80;78.90;;;;;;4994814;28;20057;-90
2021/11/09 11:34:48;;;;;;;26.33;11.15;;;10.90;78.90;;;;;;5004916;28;20148;-90
2021/11/09 11:37:18;;;;;;;25.77;11.25;;;10.90;78.90;;;;;;5012199;28;20054;-89
2021/11/09 11:39:48;;;;;;;25.90;10.63;;;10.90;78.90;;;;;;5014031;28;20045;-89
2021/11/09 11:42:17;;;;;;;22.92;10.88;;;10.90;78.90;;;;;;5009112;28;20053;-89
2021/11/09 11:44:58;;;;;;;26.73;9.55;;;10.90;78.90;;;;;;4993404;28;20415;-88
2021/11/09 11:47:25;;;;;;;27.17;10.73;;;10.90;78.90;;;;;;5010177;28;20050;-88
2021/11/09 11:50:04;;;;;;;25.05;9.80;;;11.00;78.90;;;;;;5012366;28;20062;-92
2021/11/09 11:52:33;;;;;;;21.63;9.63;;;11.00;78.80;;;;;;5012581;28;20054;-92
2021/11/09 11:55:07;;;;;;;26.33;9.32;;;11.10;78.80;;;;;;5009239;28;20050;-90
2021/11/09 11:57:42;;;;;;;23.15;9.02;;;11.20;78.70;;;;;;4992452;28;20400;-90
2021/11/09 12:00:37;;;;;;;28.73;8.73;;;11.20;78.60;;;;;;4992984;28;20049;-90
2021/11/09 12:03:25;;;;;;;27.45;9.20;;;11.30;78.50;;;;;;5008379;28;20506;-89
2021/11/09 12:05:55;;;;;;;22.38;9.35;;;11.30;78.40;;;;;;4999546;28;20042;-90
2021/11/09 12:08:42;;;;;;;22.25;8.98;;;11.40;78.30;;;;;;5000887;28;20051;-91
2021/11/09 12:11:40;;;;;;;22.52;8.27;;;11.50;78.20;;;;;;5007925;28;20081;-90
2021/11/09 12:14:15;;;;;;;26.33;8.20;;;11.50;78.10;;;;;;4994721;28;20129;-90
2021/11/09 12:16:52;;;;;;;23.13;8.45;;;11.60;78.00;;;;;;5004603;28;20045;-91
2021/11/09 12:19:35;;;;;;;24.20;8.18;;;11.70;77.80;;;;;;5012332;28;20073;-90
2021/11/09 12:22:06;;;;;;;23.33;9.32;;;11.70;77.70;;;;;;5007948;28;20050;-91
2021/11/09 12:24:48;;;;;;;18.90;8.25;;;11.80;77.60;;;;;;5010925;28;20387;-89
2021/11/09 12:27:16;;;;;;;25.10;9.02;;;11.90;77.40;;;;;;5007424;28;20056;-88
2021/11/09 12:29:48;;;;;;;22.38;8.98;;;11.90;77.30;;;;;;4993077;28;20058;-88
2021/11/09 12:32:21;;;;;;;22.95;8.82;;;12.00;77.20;;;;;;4992037;28;20482;-89
2021/11/09 12:35:03;;;;;;;28.73;9.43;;;12.00;77.10;;;;;;4992717;28;20046;-89
2021/11/09 12:37:35;;;;;;;20.30;8.60;;;12.10;77.00;;;;;;4995616;28;20053;-89
2021/11/09 12:40:30;;;;;;;21.90;9.23;;;12.10;76.90;;;;;;4994728;28;20505;-89
2021/11/09 12:43:31;;;;;;;19.15;8.95;;;12.20;76.70;;;;;;4991476;28;20057;-90
2021/11/09 12:46:06;;;;;;;21.65;8.75;;;12.30;76.60;;;;;;4993846;28;20057;-89
2021/11/09 12:48:39;;;;;;;19.98;8.55;;;12.30;76.50;;;;;;5009542;28;20046;-89
2021/11/09 12:51:10;;;;;;;27.38;10.23;;;12.30;76.40;;;;;;5012296;28;20052;-89
2021/11/09 12:53:39;;;;;;;28.60;8.98;;;12.40;76.30;;;;;;5010941;28;20525;-89
2021/11/09 12:56:12;;;;;;;26.52;9.70;;;12.40;76.30;;;;;;5004223;28;20525;-90
2021/11/09 12:58:47;;;;;;;;;;;12.40;76.10;;;;;;4996914;28;20104;-89
2021/11/09 13:06:43;;;;;;;23.48;9.15;;;12.60;75.90;;;;;;5009694;28;20053;-90
2021/11/09 13:09:29;;;;;;;20.42;9.20;;;12.60;75.70;;;;;;5010095;28;20058;-90
2021/11/09 13:12:00;;;;;;;25.67;9.23;;;12.70;75.70;;;;;;5010174;28;20049;-91
2021/11/09 13:14:45;;;;;;;24.52;9.25;;;12.70;75.60;;;;;;4994187;28;20054;-90
2021/11/09 13:17:52;;;;;;;19.67;8.52;;;12.80;75.50;;;;;;4994764;28;20049;-90
2021/11/09 13:20:35;;;;;;;18.75;7.80;;;12.80;75.40;;;;;;4996890;28;20058;-91
2021/11/09 13:23:20;;;;;;;19.23;9.20;;;12.80;75.30;;;;;;4993943;28;20055;-89
2021/11/09 13:25:55;;;;;;;29.15;9.85;;;12.90;75.10;;;;;;4995088;28;20046;-90
2021/11/09 13:28:26;;;;;;;19.42;8.77;;;12.90;75.00;;;;;;5006006;28;20046;-89
2021/11/09 13:31:00;;;;;;;22.00;8.07;;;12.90;74.90;;;;;;4991175;28;20046;-90
2021/11/09 13:33:30;;;;;;;16.80;8.10;;;12.90;74.90;;;;;;4995733;28;20142;-89
2021/11/09 13:35:58;;;;;;;19.80;8.77;;;13.00;74.80;;;;;;4999625;28;20050;-89
2021/11/09 13:38:37;;;;;;;20.48;9.15;;;13.00;74.70;;;;;;5004939;28;20054;-89
2021/11/09 13:41:12;;;;;;;23.10;9.77;;;13.00;74.60;;;;;;5005826;28;20098;-90
2021/11/09 13:43:42;;;;;;;24.13;10.30;;;13.10;74.50;;;;;;5004631;28;20107;-89
2021/11/09 13:46:17;;;;;;;30.40;11.73;;;13.10;74.40;;;;;;5011228;28;20046;-89
2021/11/09 13:48:49;;;;;;;26.30;10.43;;;13.10;74.30;;;;;;4994924;28;20042;-89
2021/11/09 13:51:20;;;;;;;27.17;10.02;;;13.10;74.30;;;;;;5011312;28;20060;-87
2021/11/09 13:53:49;;;;;;;27.20;10.88;;;13.10;74.20;;;;;;4998302;28;20499;-89
2021/11/09 13:56:24;;;;;;;25.67;10.77;;;13.00;74.00;;;;;;5000868;28;20050;-89
2021/11/09 13:58:57;;;;;;;27.67;10.35;;;13.00;74.00;;;;;;5001452;28;20633;-89
2021/11/09 14:07:37;;;;;;;25.15;10.50;;;13.00;73.90;;;;;;5008854;28;20050;-88
2021/11/09 14:13:22;;;;;;;29.23;12.05;;;12.90;74.00;;;;;;4995826;28;20069;-89
2021/11/09 14:18:21;;;;;;;24.75;11.15;;;12.80;74.00;;;;;;5014893;28;20060;-90
2021/11/09 14:21:08;;;;;;;26.23;11.55;;;12.80;74.10;;;;;;4999219;28;20058;-90
2021/11/09 14:23:43;;;;;;;27.30;12.00;;;12.70;74.10;;;;;;4994437;28;20061;-90
2021/11/09 14:26:21;;;;;;;24.85;10.40;;;12.60;74.20;;;;;;5008050;28;20054;-90
2021/11/09 14:28:50;;;;;;;25.27;10.80;;;12.60;74.30;;;;;;5009936;28;20065;-90
2021/11/09 14:31:24;;;;;;;26.25;11.82;;;12.50;74.40;;;;;;5009161;28;20050;-89
2021/11/09 14:34:12;;;;;;;27.60;11.30;;;12.50;74.50;;;;;;4996039;28;20069;-90
2021/11/09 14:36:42;;;;;;;27.05;11.02;;;12.40;74.60;;;;;;5011129;28;20061;-89
2021/11/09 14:39:27;;;;;;;24.63;11.85;;;12.40;74.70;;;;;;4998701;28;20089;-89
2021/11/09 14:42:15;;;;;;;22.67;11.02;;;12.30;74.80;;;;;;4995668;28;20058;-90
2021/11/09 14:45:07;;;;;;;29.90;12.27;;;12.20;74.80;;;;;;5007983;28;20061;-90
2021/11/09 14:47:41;;;;;;;31.55;11.90;;;12.20;75.00;;;;;;5009552;28;20105;-90
2021/11/09 14:50:14;;;;;;;;;;;12.10;75.10;;;;;;5006323;28;20572;-87
2021/11/09 14:52:43;;;;;;;22.17;11.40;;;12.00;75.20;;;;;;5009721;28;19921;-90
2021/11/09 14:55:24;;;;;;;23.33;11.45;;;12.00;75.30;;;;;;5007666;28;20046;-89
2021/11/09 14:57:51;;;;;;;29.83;12.73;;;11.90;75.50;;;;;;5008394;28;20054;-90
2021/11/09 15:00:21;;;;;;;24.88;10.98;;;11.90;75.60;;;;;;4998078;28;20108;-88
2021/11/09 15:03:00;;;;;;;25.65;10.88;;;11.80;75.70;;;;;;5010505;28;20089;-89
2021/11/09 15:05:28;;;;;;;24.38;11.68;;;11.80;75.80;;;;;;5009740;28;20054;-87
2021/11/09 15:08:04;;;;;;;25.23;11.52;;;11.70;75.90;;;;;;5007024;28;20498;-90
2021/11/09 15:30:42;;;;;;;26.30;11.85;;;11.40;76.80;;;;;;4920358;29;20047;-91
2021/11/09 15:33:24;;;;;;;21.63;11.00;;;11.30;77.00;;;;;;4913756;29;20048;-90
2021/11/09 15:38:30;;;;;;;26.35;11.35;;;11.20;77.20;;;;;;4933483;29;20522;-90
2021/11/09 15:40:58;;;;;;;23.90;10.63;;;11.20;77.30;;;;;;4921530;29;20052;-90
2021/11/09 15:43:25;;;;;;;21.80;11.13;;;11.20;77.40;;;;;;4901659;29;20529;-90
2021/11/09 15:45:54;;;;;;;27.17;11.35;;;11.10;77.50;;;;;;4932626;29;20062;-90
2021/11/09 15:48:21;;;;;;;24.30;11.55;;;11.10;77.60;;;;;;4990431;28;20050;-90
2021/11/09 15:50:48;;;;;;;23.98;10.70;;;11.10;77.70;;;;;;5007500;28;20503;-89
2021/11/09 15:53:15;;;;;;;24.20;10.45;;;11.10;77.70;;;;;;4996298;28;20054;-89
2021/11/09 15:55:42;;;;;;;21.35;10.63;;;11.00;77.80;;;;;;5003521;28;20057;-88
2021/11/09 15:58:10;;;;;;;24.60;10.55;;;11.00;77.90;;;;;;5007709;28;20492;-90
2021/11/09 16:00:38;;;;;;;25.25;11.30;;;11.00;78.00;;;;;;4993145;28;20053;-90
2021/11/09 16:03:05;;;;;;;27.58;11.35;;;10.90;78.00;;;;;;5007795;28;20053;-90